createdAt,value
2023-07-06T00:00:56.731Z,4.35
2023-07-06T00:03:26.331Z,4.40
2023-07-06T00:05:53.578Z,4.38
2023-07-06T00:08:21.491Z,4.38
2023-07-06T00:10:52.444Z,4.72
2023-07-06T00:13:21.868Z,4.95
2023-07-06T00:15:49.882Z,4.68
2023-07-06T00:18:18.942Z,5.22
2023-07-06T00:20:46.297Z,5.47
2023-07-06T00:23:13.028Z,5.55
2023-07-06T00:25:43.071Z,5.72
2023-07-06T00:28:11.344Z,6.18
2023-07-06T00:30:46.376Z,5.57
2023-07-06T00:33:14.894Z,5.63
2023-07-06T00:35:42.228Z,6.72
2023-07-06T00:38:15.479Z,5.93
2023-07-06T00:40:48.386Z,6.18
2023-07-06T00:43:19.043Z,6.05
2023-07-06T00:45:47.259Z,6.55
2023-07-06T00:48:33.510Z,6.75
2023-07-06T00:51:33.673Z,6.88
2023-07-06T00:54:06.082Z,6.93
2023-07-06T00:56:38.658Z,6.72
2023-07-06T00:59:07.933Z,7.13
2023-07-06T01:01:37.745Z,7.03
2023-07-06T01:04:06.204Z,6.13
2023-07-06T01:06:40.422Z,6.45
2023-07-06T01:09:08.721Z,6.47
2023-07-06T01:11:37.043Z,6.50
2023-07-06T01:14:04.628Z,6.90
2023-07-06T01:16:38.442Z,7.03
2023-07-06T01:19:18.050Z,6.38
2023-07-06T01:22:23.793Z,6.68
2023-07-06T01:25:13.374Z,6.70
2023-07-06T01:28:18.559Z,7.28
2023-07-06T01:31:06.603Z,7.40
2023-07-06T01:33:53.561Z,6.22
2023-07-06T01:36:29.432Z,7.00
2023-07-06T01:39:19.825Z,6.60
2023-07-06T01:41:48.297Z,6.88
2023-07-06T01:44:17.597Z,6.28
2023-07-06T01:46:54.302Z,7.18
2023-07-06T01:49:21.732Z,6.65
2023-07-06T01:52:04.626Z,6.28
2023-07-06T01:54:42.228Z,6.68
2023-07-06T01:57:18.011Z,6.47
2023-07-06T01:59:47.996Z,6.30
2023-07-06T02:02:15.891Z,6.88
2023-07-06T02:04:44.699Z,6.47
2023-07-06T02:07:12.970Z,6.68
2023-07-06T02:09:47.295Z,6.00
2023-07-06T02:12:14.296Z,5.82
2023-07-06T02:14:44.499Z,6.50
2023-07-06T02:17:11.771Z,6.85
2023-07-06T02:19:39.559Z,6.68
2023-07-06T02:22:06.465Z,6.78
2023-07-06T02:24:34.682Z,6.88
2023-07-06T02:27:02.113Z,7.07
2023-07-06T02:29:28.933Z,6.88
2023-07-06T02:31:55.597Z,6.10
2023-07-06T02:34:28.154Z,6.60
2023-07-06T02:36:56.397Z,6.70
2023-07-06T02:39:25.627Z,6.05
2023-07-06T02:41:55.142Z,6.63
2023-07-06T02:44:22.968Z,7.03
2023-07-06T02:46:49.925Z,6.13
2023-07-06T02:49:17.552Z,6.05
2023-07-06T02:51:44.700Z,6.00
2023-07-06T02:54:14.942Z,6.85
2023-07-06T02:56:43.036Z,5.65
2023-07-06T02:59:10.702Z,6.18
2023-07-06T03:01:37.988Z,7.20
2023-07-06T03:04:11.519Z,6.15
2023-07-06T03:06:39.757Z,5.95
2023-07-06T03:09:08.622Z,6.25
2023-07-06T03:11:36.963Z,5.70
2023-07-06T03:14:05.104Z,6.25
2023-07-06T03:16:41.224Z,6.40
2023-07-06T03:19:09.466Z,5.70
2023-07-06T03:21:36.707Z,6.00
2023-07-06T03:24:03.623Z,7.10
2023-07-06T03:26:30.881Z,6.25
2023-07-06T03:28:57.646Z,5.93
2023-07-06T03:31:24.916Z,6.32
2023-07-06T03:33:51.610Z,6.93
2023-07-06T03:36:18.326Z,6.22
2023-07-06T03:38:45.471Z,6.28
2023-07-06T03:41:12.299Z,6.93
2023-07-06T03:43:39.938Z,6.13
2023-07-06T03:46:06.805Z,7.28
2023-07-06T03:48:33.637Z,6.43
2023-07-06T03:51:05.125Z,6.55
2023-07-06T03:53:38.647Z,7.13
2023-07-06T03:56:07.796Z,6.68
2023-07-06T03:58:39.813Z,6.75
2023-07-06T04:01:07.340Z,6.28
2023-07-06T04:03:34.906Z,6.80
2023-07-06T04:06:04.996Z,6.28
2023-07-06T04:08:33.138Z,6.78
2023-07-06T04:10:59.966Z,6.68
2023-07-06T04:13:26.773Z,6.55
2023-07-06T04:15:53.803Z,6.72
2023-07-06T04:18:20.926Z,7.40
2023-07-06T04:20:49.224Z,6.57
2023-07-06T04:23:16.570Z,6.82
2023-07-06T04:25:43.973Z,6.85
2023-07-06T04:28:15.395Z,6.70
2023-07-06T04:30:45.957Z,7.60
2023-07-06T04:33:17.619Z,7.10
2023-07-06T04:35:44.620Z,7.15
2023-07-06T04:38:11.775Z,7.22
2023-07-06T04:40:40.018Z,7.05
2023-07-06T04:43:06.843Z,7.30
2023-07-06T04:45:33.556Z,7.15
2023-07-06T04:48:00.795Z,7.10
2023-07-06T04:50:28.275Z,7.32
2023-07-06T04:52:57.295Z,7.30
2023-07-06T04:55:28.430Z,6.97
2023-07-06T04:57:57.817Z,7.00
2023-07-06T05:00:30.507Z,6.63
2023-07-06T05:03:00.557Z,7.22
2023-07-06T05:05:33.796Z,6.82
2023-07-06T05:08:00.663Z,6.65
2023-07-06T05:10:28.737Z,7.53
2023-07-06T05:12:57.045Z,7.07
2023-07-06T05:15:25.002Z,7.63
2023-07-06T05:17:53.323Z,6.95
2023-07-06T05:20:21.619Z,7.90
2023-07-06T05:22:49.622Z,7.93
2023-07-06T05:25:18.537Z,7.00
2023-07-06T05:27:46.247Z,7.03
2023-07-06T05:30:13.455Z,7.07
2023-07-06T05:32:40.522Z,7.57
2023-07-06T05:35:07.998Z,8.45
2023-07-06T05:37:36.463Z,8.00
2023-07-06T05:40:07.394Z,7.15
2023-07-06T05:42:34.757Z,8.35
2023-07-06T05:45:01.818Z,8.38
2023-07-06T05:47:29.108Z,8.82
2023-07-06T05:49:55.971Z,7.65
2023-07-06T05:52:23.222Z,8.05
2023-07-06T05:54:50.020Z,7.60
2023-07-06T05:57:21.135Z,8.00
2023-07-06T05:59:49.339Z,8.75
2023-07-06T06:02:19.098Z,8.43
2023-07-06T06:04:49.090Z,8.88
2023-07-06T06:07:16.375Z,8.43
2023-07-06T06:09:43.872Z,9.05
2023-07-06T06:12:11.869Z,10.00
2023-07-06T06:14:38.995Z,9.13
2023-07-06T06:17:06.247Z,9.77
2023-07-06T06:19:38.654Z,10.15
2023-07-06T06:22:10.310Z,9.93
2023-07-06T06:24:37.156Z,9.52
2023-07-06T06:27:05.490Z,10.68
2023-07-06T06:29:33.764Z,9.75
2023-07-06T06:32:03.190Z,10.05
2023-07-06T06:34:30.201Z,10.90
2023-07-06T06:36:57.021Z,11.02
2023-07-06T06:39:23.802Z,11.38
2023-07-06T06:41:50.594Z,11.95
2023-07-06T06:44:17.383Z,11.93
2023-07-06T06:46:46.537Z,12.82
2023-07-06T06:49:13.585Z,13.00
2023-07-06T06:51:40.909Z,13.75
2023-07-06T06:54:07.963Z,14.25
2023-07-06T06:56:36.524Z,14.10
2023-07-06T07:01:31.383Z,15.55
2023-07-06T07:04:01.127Z,15.82
2023-07-06T07:06:29.888Z,15.27
2023-07-06T07:08:58.616Z,16.58
2023-07-06T07:11:26.521Z,16.33
2023-07-06T07:13:54.397Z,16.30
2023-07-06T07:16:22.133Z,16.60
2023-07-06T07:18:49.761Z,16.97
2023-07-06T07:21:20.450Z,15.55
2023-07-06T07:23:48.668Z,15.80
2023-07-06T07:26:20.168Z,18.25
2023-07-06T07:28:52.319Z,16.80
2023-07-06T07:31:20.662Z,16.10
2023-07-06T07:33:48.385Z,15.23
2023-07-06T07:36:19.414Z,16.27
2023-07-06T07:38:47.393Z,14.63
2023-07-06T07:41:14.834Z,13.35
2023-07-06T07:43:43.110Z,13.48
2023-07-06T07:46:14.905Z,14.02
2023-07-06T07:48:51.927Z,13.10
2023-07-06T07:51:20.655Z,11.05
2023-07-06T07:53:47.847Z,10.65
2023-07-06T07:56:16.839Z,10.52
2023-07-06T07:58:48.457Z,8.88
2023-07-06T08:01:19.073Z,7.93
2023-07-06T08:03:45.842Z,7.20
2023-07-06T08:06:18.144Z,7.20
2023-07-06T08:08:49.327Z,7.60
2023-07-06T08:11:22.159Z,6.80
2023-07-06T08:13:55.261Z,6.03
2023-07-06T08:16:23.511Z,6.32
2023-07-06T08:18:52.691Z,6.77
2023-07-06T08:21:44.456Z,6.25
2023-07-06T08:24:15.012Z,6.43
2023-07-06T08:26:42.144Z,6.70
2023-07-06T08:29:09.333Z,5.68
2023-07-06T08:31:36.176Z,5.43
2023-07-06T08:34:02.903Z,5.78
2023-07-06T08:36:29.733Z,5.10
2023-07-06T08:38:57.659Z,5.10
2023-07-06T08:41:30.678Z,4.63
2023-07-06T08:44:04.973Z,4.88
2023-07-06T08:46:36.241Z,4.90
2023-07-06T08:49:03.993Z,5.10
2023-07-06T08:51:37.424Z,5.78
2023-07-06T08:54:11.201Z,5.97
2023-07-06T08:56:37.945Z,6.00
2023-07-06T08:59:09.008Z,4.85
2023-07-06T09:01:37.875Z,5.32
2023-07-06T09:04:14.845Z,4.65
2023-07-06T09:06:45.308Z,5.10
2023-07-06T09:09:13.266Z,4.72
2023-07-06T09:11:44.107Z,3.70
2023-07-06T09:14:14.949Z,4.18
2023-07-06T09:16:57.079Z,3.88
2023-07-06T09:19:25.942Z,4.70
2023-07-06T09:21:59.240Z,3.95
2023-07-06T09:24:29.355Z,4.85
2023-07-06T09:27:02.497Z,4.80
2023-07-06T09:29:34.671Z,4.65
2023-07-06T09:32:17.297Z,4.07
2023-07-06T09:34:47.987Z,3.25
2023-07-06T09:37:21.381Z,3.25
2023-07-06T09:42:46.494Z,4.18
2023-07-06T09:45:24.621Z,4.03
2023-07-06T09:47:58.938Z,3.92
2023-07-06T09:50:44.211Z,3.92
2023-07-06T09:53:25.182Z,4.28
2023-07-06T09:55:51.898Z,4.10
2023-07-06T09:58:31.168Z,4.00
2023-07-06T10:01:15.811Z,4.32
2023-07-06T10:04:21.111Z,4.10
2023-07-06T10:07:35.516Z,4.18
2023-07-06T10:10:18.658Z,3.53
2023-07-06T10:12:59.708Z,4.20
2023-07-06T10:15:30.785Z,5.00
2023-07-06T10:18:07.582Z,4.85
2023-07-06T10:20:44.719Z,5.28
2023-07-06T10:23:22.431Z,4.78
2023-07-06T10:26:08.337Z,3.78
2023-07-06T10:28:39.485Z,5.40
2023-07-06T10:31:09.594Z,4.50
2023-07-06T10:33:45.415Z,4.40
2023-07-06T10:36:14.067Z,5.15
2023-07-06T10:38:40.738Z,4.82
2023-07-06T10:41:10.988Z,4.93
2023-07-06T10:43:42.556Z,4.78
2023-07-06T10:46:36.812Z,4.47
2023-07-06T10:49:21.292Z,4.47
2023-07-06T10:51:50.423Z,4.25
2023-07-06T10:54:31.585Z,4.22
2023-07-06T10:57:12.183Z,5.13
2023-07-06T10:59:47.039Z,4.60
2023-07-06T11:02:24.263Z,5.15
2023-07-06T11:04:58.803Z,5.07
2023-07-06T11:07:42.993Z,5.50
2023-07-06T11:10:13.346Z,3.78
2023-07-06T11:13:02.707Z,4.15
2023-07-06T11:15:44.865Z,4.80
2023-07-06T11:18:22.316Z,4.15
2023-07-06T11:20:53.652Z,3.70
2023-07-06T11:23:36.976Z,3.83
2023-07-06T11:26:16.573Z,5.20
2023-07-06T11:28:45.126Z,3.20
2023-07-06T11:31:30.019Z,3.40
2023-07-06T11:34:08.435Z,3.22
2023-07-06T11:39:22.129Z,2.25
2023-07-06T11:41:58.827Z,2.00
2023-07-06T11:44:46.997Z,2.50
2023-07-06T11:50:11.215Z,2.25
2023-07-06T11:52:45.423Z,1.98
2023-07-06T11:55:30.475Z,2.10
2023-07-06T11:58:29.678Z,2.17
2023-07-06T12:01:02.126Z,2.15
2023-07-06T12:03:30.802Z,1.60
2023-07-06T12:06:00.153Z,1.70
2023-07-06T12:08:36.541Z,1.42
2023-07-06T12:11:16.307Z,1.70
2023-07-06T12:13:45.369Z,1.50
2023-07-06T12:16:19.808Z,1.73
2023-07-06T12:18:56.945Z,1.30
2023-07-06T12:21:40.975Z,1.20
2023-07-06T12:24:15.857Z,1.10
2023-07-06T12:26:48.903Z,0.90
2023-07-06T12:29:18.499Z,1.00
2023-07-06T12:31:53.645Z,2.05
2023-07-06T12:34:26.967Z,1.10
2023-07-06T12:36:56.446Z,1.00
2023-07-06T12:39:24.700Z,0.95
2023-07-06T12:41:52.512Z,0.90
2023-07-06T12:44:22.595Z,1.00
2023-07-06T12:46:52.752Z,0.80
2023-07-06T12:49:24.609Z,0.90
2023-07-06T12:51:57.116Z,1.08
2023-07-06T12:54:28.781Z,0.80
2023-07-06T12:57:01.372Z,0.75
2023-07-06T12:59:37.361Z,0.90
2023-07-06T13:02:22.078Z,1.05
2023-07-06T13:04:50.178Z,0.95
2023-07-06T13:07:18.693Z,1.15
2023-07-06T13:09:46.183Z,0.80
2023-07-06T13:12:22.072Z,0.90
2023-07-06T13:14:50.543Z,0.80
2023-07-06T13:19:47.568Z,0.90
2023-07-06T13:22:15.022Z,0.70
2023-07-06T13:24:42.067Z,0.85
2023-07-06T13:27:20.395Z,0.70
2023-07-06T13:32:19.568Z,0.60
2023-07-06T13:34:48.047Z,1.02
2023-07-06T13:37:27.555Z,0.70
2023-07-06T13:39:54.311Z,0.77
2023-07-06T13:42:22.642Z,0.77
2023-07-06T13:47:19.995Z,0.68
2023-07-06T13:49:50.979Z,0.88
2023-07-06T13:52:19.707Z,0.80
2023-07-06T13:54:46.915Z,1.00
2023-07-06T13:57:13.945Z,1.10
2023-07-06T13:59:40.983Z,1.00
2023-07-06T14:02:14.502Z,1.38
2023-07-06T14:04:42.737Z,0.82
2023-07-06T14:07:10.371Z,0.85
2023-07-06T14:09:37.198Z,0.95
2023-07-06T14:12:06.512Z,0.80
2023-07-06T14:14:33.651Z,0.90
2023-07-06T14:17:00.352Z,0.90
2023-07-06T14:19:27.047Z,0.80
2023-07-06T14:21:54.108Z,0.77
2023-07-06T14:24:22.786Z,1.08
2023-07-06T14:26:49.802Z,1.00
2023-07-06T14:29:17.297Z,0.95
2023-07-06T14:31:48.839Z,1.23
2023-07-06T14:34:17.300Z,1.10
2023-07-06T14:36:44.379Z,1.00
2023-07-06T14:39:11.552Z,0.82
2023-07-06T14:41:38.340Z,1.00
2023-07-06T14:44:05.108Z,0.90
2023-07-06T14:46:32.042Z,0.95
2023-07-06T14:48:59.951Z,1.13
2023-07-06T14:51:26.732Z,1.10
2023-07-06T14:53:53.790Z,0.82
2023-07-06T14:56:22.243Z,0.82
2023-07-06T14:58:50.065Z,0.80
2023-07-06T15:01:17.028Z,1.15
2023-07-06T15:03:43.988Z,1.10
2023-07-06T15:06:11.991Z,0.90
2023-07-06T15:08:38.839Z,1.23
2023-07-06T15:11:05.677Z,0.95
2023-07-06T15:13:32.543Z,1.00
2023-07-06T15:15:59.717Z,0.90
2023-07-06T15:18:27.107Z,1.10
2023-07-06T15:21:07.834Z,1.10
2023-07-06T15:23:34.649Z,0.90
2023-07-06T15:26:01.337Z,1.10
2023-07-06T15:28:28.077Z,1.17
2023-07-06T15:30:54.826Z,1.00
2023-07-06T15:33:21.589Z,1.00
2023-07-06T15:35:48.352Z,0.90
2023-07-06T15:38:15.109Z,1.10
2023-07-06T15:40:46.749Z,1.20
2023-07-06T15:43:14.088Z,1.00
2023-07-06T15:45:43.320Z,1.00
2023-07-06T15:48:10.252Z,1.20
2023-07-06T15:50:39.667Z,1.00
2023-07-06T15:53:08.567Z,1.30
2023-07-06T15:55:35.836Z,0.75
2023-07-06T15:58:02.963Z,1.00
2023-07-06T16:00:29.875Z,1.00
2023-07-06T16:02:57.247Z,1.08
2023-07-06T16:05:24.841Z,1.10
2023-07-06T16:07:51.543Z,0.77
2023-07-06T16:10:18.316Z,1.00
2023-07-06T16:12:45.088Z,1.10
2023-07-06T16:15:12.471Z,0.80
2023-07-06T16:17:39.268Z,1.00
2023-07-06T16:20:07.739Z,1.10
2023-07-06T16:22:34.952Z,1.10
2023-07-06T16:25:01.782Z,1.42
2023-07-06T16:27:28.499Z,2.30
2023-07-06T16:29:55.333Z,1.00
2023-07-06T16:32:22.155Z,0.90
2023-07-06T16:34:48.866Z,1.35
2023-07-06T16:37:15.616Z,0.95
2023-07-06T16:39:42.385Z,1.02
2023-07-06T16:42:09.884Z,0.85
2023-07-06T16:44:58.929Z,0.93
2023-07-06T16:47:26.670Z,1.38
2023-07-06T16:49:54.014Z,1.25
2023-07-06T16:52:20.760Z,1.42
2023-07-06T16:54:48.827Z,1.15
2023-07-06T16:57:15.686Z,1.00
2023-07-06T16:59:42.587Z,1.10
2023-07-06T17:02:12.555Z,1.20
2023-07-06T17:04:39.380Z,1.30
2023-07-06T17:07:06.652Z,1.20
2023-07-06T17:09:33.357Z,1.15
2023-07-06T17:12:01.367Z,1.00
2023-07-06T17:14:28.179Z,1.20
2023-07-06T17:16:54.890Z,1.00
2023-07-06T17:19:21.661Z,1.45
2023-07-06T17:21:48.469Z,1.10
2023-07-06T17:24:15.295Z,1.17
2023-07-06T17:26:44.007Z,0.85
2023-07-06T17:29:10.754Z,1.13
2023-07-06T17:31:37.531Z,1.25
2023-07-06T17:34:04.239Z,1.20
2023-07-06T17:36:30.921Z,1.20
2023-07-06T17:38:57.689Z,1.08
2023-07-06T17:41:26.437Z,1.00
2023-07-06T17:43:53.361Z,1.65
2023-07-06T17:46:22.642Z,1.50
2023-07-06T17:48:49.382Z,1.63
2023-07-06T17:51:16.215Z,1.02
2023-07-06T17:53:42.973Z,1.30
2023-07-06T17:56:09.755Z,1.20
2023-07-06T17:58:38.658Z,1.48
2023-07-06T18:01:08.547Z,1.27
2023-07-06T18:03:35.647Z,1.20
2023-07-06T18:06:09.143Z,1.30
2023-07-06T18:08:35.906Z,1.40
2023-07-06T18:11:02.766Z,1.10
2023-07-06T18:13:29.506Z,1.23
2023-07-06T18:15:56.547Z,1.00
2023-07-06T18:18:23.578Z,1.35
2023-07-06T18:20:50.406Z,1.48
2023-07-06T18:23:19.538Z,1.50
2023-07-06T18:25:46.634Z,1.52
2023-07-06T18:28:15.779Z,1.10
2023-07-06T18:30:43.759Z,1.17
2023-07-06T18:33:10.559Z,3.90
2023-07-06T18:35:37.350Z,1.50
2023-07-06T18:38:04.127Z,1.52
2023-07-06T18:40:31.975Z,1.58
2023-07-06T18:42:58.697Z,1.20
2023-07-06T18:45:40.671Z,1.52
2023-07-06T18:48:09.463Z,1.45
2023-07-06T18:50:37.294Z,1.30
2023-07-06T18:53:04.172Z,1.48
2023-07-06T18:55:31.334Z,1.27
2023-07-06T18:57:58.547Z,1.40
2023-07-06T19:00:25.712Z,1.50
2023-07-06T19:02:53.055Z,1.55
2023-07-06T19:05:21.674Z,1.38
2023-07-06T19:08:00.513Z,1.20
2023-07-06T19:10:29.278Z,1.40
2023-07-06T19:12:57.879Z,1.48
2023-07-06T19:15:25.733Z,1.50
2023-07-06T19:17:53.042Z,2.25
2023-07-06T19:20:21.250Z,1.40
2023-07-06T19:22:55.785Z,1.65
2023-07-06T19:25:23.162Z,1.63
2023-07-06T19:27:50.908Z,1.30
2023-07-06T19:30:18.102Z,1.23
2023-07-06T19:32:45.341Z,1.10
2023-07-06T19:35:12.698Z,1.23
2023-07-06T19:37:39.887Z,1.50
2023-07-06T19:40:07.374Z,1.50
2023-07-06T19:42:34.591Z,1.60
2023-07-06T19:45:02.765Z,1.52
2023-07-06T19:47:30.097Z,1.60
2023-07-06T19:49:57.333Z,1.45
2023-07-06T19:52:24.490Z,1.60
2023-07-06T19:54:51.698Z,1.70
2023-07-06T19:57:27.304Z,1.60
2023-07-06T20:00:05.989Z,1.92
2023-07-06T20:02:33.218Z,1.70
2023-07-06T20:05:00.783Z,1.65
2023-07-06T20:07:31.089Z,1.90
2023-07-06T20:09:58.425Z,1.70
2023-07-06T20:12:25.569Z,1.60
2023-07-06T20:14:52.745Z,1.30
2023-07-06T20:17:22.257Z,1.50
2023-07-06T20:19:51.031Z,1.65
2023-07-06T20:22:18.228Z,1.70
2023-07-06T20:24:45.398Z,1.60
2023-07-06T20:27:12.583Z,1.80
2023-07-06T20:29:39.714Z,1.60
2023-07-06T20:32:07.075Z,2.00
2023-07-06T20:34:34.232Z,1.58
2023-07-06T20:37:01.399Z,1.55
2023-07-06T20:39:29.598Z,1.55
2023-07-06T20:41:56.828Z,1.80
2023-07-06T20:44:24.114Z,2.05
2023-07-06T20:46:51.821Z,1.92
2023-07-06T20:49:19.014Z,1.63
2023-07-06T20:51:46.134Z,1.67
2023-07-06T20:54:13.249Z,2.00
2023-07-06T20:56:40.401Z,1.73
2023-07-06T20:59:07.501Z,1.75
2023-07-06T21:01:34.662Z,1.63
2023-07-06T21:04:01.932Z,1.92
2023-07-06T21:06:29.097Z,2.13
2023-07-06T21:08:56.337Z,2.40
2023-07-06T21:11:23.467Z,2.17
2023-07-06T21:13:50.673Z,1.90
2023-07-06T21:16:36.628Z,2.15
2023-07-06T21:19:04.537Z,2.10
2023-07-06T21:21:31.759Z,2.22
2023-07-06T21:23:58.902Z,1.83
2023-07-06T21:26:26.049Z,1.85
2023-07-06T21:28:53.175Z,2.03
2023-07-06T21:31:20.319Z,2.10
2023-07-06T21:33:47.505Z,1.80
2023-07-06T21:36:14.769Z,1.90
2023-07-06T21:38:42.202Z,2.42
2023-07-06T21:41:09.420Z,2.15
2023-07-06T21:43:36.557Z,2.47
2023-07-06T21:46:09.864Z,2.28
2023-07-06T21:48:37.615Z,2.00
2023-07-06T21:51:06.602Z,2.30
2023-07-06T21:53:34.000Z,1.90
2023-07-06T21:56:01.540Z,2.40
2023-07-06T21:58:29.535Z,2.17
2023-07-06T22:00:57.496Z,2.17
2023-07-06T22:03:25.121Z,2.00
2023-07-06T22:06:00.148Z,2.40
2023-07-06T22:08:29.129Z,2.17
2023-07-06T22:10:57.428Z,2.10
2023-07-06T22:15:55.487Z,2.40
2023-07-06T22:18:23.774Z,2.65
2023-07-06T22:20:51.559Z,2.40
2023-07-06T22:23:19.471Z,2.65
2023-07-06T22:25:47.042Z,2.30
2023-07-06T22:28:14.530Z,2.37
2023-07-06T22:30:42.517Z,2.50
2023-07-06T22:33:09.867Z,2.05
2023-07-06T22:35:37.125Z,2.72
2023-07-06T22:38:04.326Z,2.10
2023-07-06T22:40:32.330Z,2.28
2023-07-06T22:43:02.841Z,2.13
2023-07-06T22:45:30.581Z,1.98
2023-07-06T22:47:57.892Z,2.38
2023-07-06T22:50:32.529Z,2.15
2023-07-06T22:53:01.756Z,2.30
2023-07-06T22:55:35.451Z,2.17
2023-07-06T22:58:03.807Z,2.53
2023-07-06T23:00:33.269Z,2.40
2023-07-06T23:03:00.336Z,2.20
2023-07-06T23:05:27.547Z,2.38
2023-07-06T23:07:55.989Z,2.35
2023-07-06T23:12:51.294Z,2.40
2023-07-06T23:17:54.000Z,2.60
2023-07-06T23:20:22.227Z,2.25
2023-07-06T23:22:49.365Z,2.30
2023-07-06T23:25:17.862Z,2.58
2023-07-06T23:30:15.628Z,2.70
2023-07-06T23:32:49.557Z,3.20
2023-07-06T23:35:20.410Z,2.90
2023-07-06T23:37:50.085Z,3.13
2023-07-06T23:40:22.416Z,2.80
2023-07-06T23:42:49.342Z,2.97
2023-07-06T23:45:16.281Z,2.97
2023-07-06T23:47:43.132Z,3.40
2023-07-06T23:50:10.750Z,3.17
2023-07-06T23:52:37.662Z,2.87
2023-07-06T23:55:04.862Z,2.90
2023-07-06T23:57:31.650Z,3.08
2023-07-06T23:59:58.356Z,2.97
